createdAt,value
2022-11-30T00:01:15.985Z,101858.03
2022-11-30T00:06:23.346Z,101855.77
2022-11-30T00:11:28.640Z,101857.61
2022-11-30T00:16:32.032Z,101852.05
2022-11-30T00:21:34.954Z,101854.25
2022-11-30T00:26:38.068Z,101855.00
2022-11-30T00:31:41.012Z,101856.29
2022-11-30T00:36:43.953Z,101859.45
2022-11-30T00:41:46.900Z,101857.45
2022-11-30T00:46:49.713Z,101860.29
2022-11-30T00:51:53.050Z,101860.73
2022-11-30T00:56:56.261Z,101862.42
2022-11-30T01:01:59.382Z,101865.44
2022-11-30T01:07:02.226Z,101864.76
2022-11-30T01:12:05.616Z,101869.77
2022-11-30T01:17:08.523Z,101875.45
2022-11-30T01:22:11.874Z,101875.29
2022-11-30T01:27:14.709Z,101871.09
2022-11-30T01:32:17.818Z,101870.44
2022-11-30T01:37:20.732Z,101868.55
2022-11-30T01:42:23.600Z,101870.88
2022-11-30T01:47:39.509Z,101873.95
2022-11-30T01:52:49.056Z,101880.20
2022-11-30T01:58:20.222Z,101879.80
2022-11-30T02:03:57.061Z,101880.04
2022-11-30T02:09:00.085Z,101878.81
2022-11-30T02:14:58.698Z,101880.38
2022-11-30T02:20:38.388Z,101875.88
2022-11-30T02:26:12.198Z,101878.21
2022-11-30T02:31:20.466Z,101880.52
2022-11-30T02:36:23.382Z,101885.97
2022-11-30T02:41:26.192Z,101894.81
2022-11-30T02:46:44.153Z,101893.52
2022-11-30T02:51:47.088Z,101895.50
2022-11-30T02:56:50.013Z,101900.38
2022-11-30T03:01:53.423Z,101899.16
2022-11-30T03:07:16.456Z,101898.50
2022-11-30T03:12:19.295Z,101905.02
2022-11-30T03:17:23.670Z,101904.52
2022-11-30T03:22:26.926Z,101906.88
2022-11-30T03:27:30.037Z,101907.61
2022-11-30T03:32:33.009Z,101909.66
2022-11-30T03:37:36.210Z,101912.33
2022-11-30T03:42:39.116Z,101919.28
2022-11-30T03:47:43.162Z,101925.55
2022-11-30T03:52:46.434Z,101930.09
2022-11-30T03:57:53.211Z,101932.60
2022-11-30T04:02:56.168Z,101928.37
2022-11-30T04:08:00.267Z,101925.02
2022-11-30T04:13:03.405Z,101931.06
2022-11-30T04:18:06.439Z,101930.31
2022-11-30T04:23:12.631Z,101929.06
2022-11-30T04:28:16.493Z,101933.13
2022-11-30T04:33:19.361Z,101935.95
2022-11-30T04:38:23.695Z,101936.16
2022-11-30T04:43:26.937Z,101936.51
2022-11-30T04:48:29.887Z,101936.95
2022-11-30T04:53:34.930Z,101936.27
2022-11-30T04:58:39.170Z,101940.44
2022-11-30T05:03:43.122Z,101944.82
2022-11-30T05:08:47.174Z,101946.79
2022-11-30T05:13:50.038Z,101954.91
2022-11-30T05:18:52.859Z,101956.30
2022-11-30T05:23:55.732Z,101957.80
2022-11-30T05:28:58.616Z,101956.64
2022-11-30T05:34:01.560Z,101955.95
2022-11-30T05:39:04.766Z,101964.30
2022-11-30T05:44:08.855Z,101967.41
2022-11-30T05:49:13.365Z,101969.61
2022-11-30T05:54:16.264Z,101974.14
2022-11-30T05:59:19.151Z,101975.16
2022-11-30T06:04:22.855Z,101979.82
2022-11-30T06:09:26.240Z,101984.48
2022-11-30T06:14:29.054Z,101985.60
2022-11-30T06:19:31.895Z,101983.64
2022-11-30T06:24:34.724Z,101988.42
2022-11-30T06:29:37.539Z,101983.77
2022-11-30T06:34:40.894Z,101987.48
2022-11-30T06:40:05.384Z,101990.94
2022-11-30T06:45:07.556Z,101998.17
2022-11-30T06:50:10.473Z,101999.36
2022-11-30T06:56:15.697Z,102007.54
2022-11-30T07:01:18.748Z,102008.73
2022-11-30T07:06:21.668Z,102010.63
2022-11-30T07:11:32.257Z,102014.19
2022-11-30T07:16:37.133Z,102012.32
2022-11-30T07:21:40.053Z,102015.92
2022-11-30T07:26:42.818Z,102020.55
2022-11-30T07:31:52.496Z,102022.61
2022-11-30T07:36:55.471Z,102023.27
2022-11-30T07:41:58.342Z,102023.39
2022-11-30T07:47:01.594Z,102030.77
2022-11-30T07:52:04.978Z,102032.31
2022-11-30T07:57:07.845Z,102034.90
2022-11-30T08:02:11.146Z,102030.67
2022-11-30T08:07:14.843Z,102029.14
2022-11-30T08:12:17.890Z,102023.42
2022-11-30T08:17:20.711Z,102025.34
2022-11-30T08:22:23.881Z,102028.72
2022-11-30T08:27:26.800Z,102029.89
2022-11-30T08:32:29.689Z,102036.80
2022-11-30T08:37:32.653Z,102037.09
2022-11-30T08:42:35.608Z,102040.52
2022-11-30T08:47:38.530Z,102037.05
2022-11-30T08:52:41.526Z,102040.02
2022-11-30T08:57:44.353Z,102039.83
2022-11-30T09:02:47.352Z,102036.63
2022-11-30T09:07:50.393Z,102034.40
2022-11-30T09:12:53.779Z,102037.94
2022-11-30T09:17:56.676Z,102041.88
2022-11-30T09:22:59.877Z,102034.66
2022-11-30T09:28:04.254Z,102042.69
2022-11-30T09:33:08.882Z,102040.90
2022-11-30T09:38:11.779Z,102046.44
2022-11-30T09:44:09.836Z,102041.55
2022-11-30T09:49:22.484Z,102042.56
2022-11-30T09:54:35.676Z,102041.79
2022-11-30T09:59:49.014Z,102040.29
2022-11-30T10:04:51.997Z,102039.48
2022-11-30T10:15:54.507Z,102034.84
2022-11-30T10:21:17.151Z,102034.79
2022-11-30T10:26:36.276Z,102030.16
2022-11-30T10:31:41.569Z,102031.05
2022-11-30T10:36:51.749Z,102033.39
2022-11-30T10:42:02.672Z,102035.05
2022-11-30T10:47:20.385Z,102035.34
2022-11-30T10:52:35.302Z,102034.77
2022-11-30T10:57:38.575Z,102035.88
2022-11-30T11:02:47.375Z,102029.02
2022-11-30T11:08:05.767Z,102035.92
2022-11-30T11:13:40.164Z,102025.70
2022-11-30T11:18:57.209Z,102022.98
2022-11-30T11:24:00.638Z,102022.91
2022-11-30T11:29:03.602Z,102021.48
2022-11-30T11:34:23.839Z,102023.10
2022-11-30T11:39:27.475Z,102020.25
2022-11-30T11:44:31.940Z,102018.27
2022-11-30T11:49:36.973Z,102021.08
2022-11-30T11:54:55.402Z,102018.27
2022-11-30T12:00:12.530Z,102019.19
2022-11-30T12:05:57.206Z,102022.77
2022-11-30T12:11:14.466Z,102024.63
2022-11-30T12:17:12.853Z,102024.24
2022-11-30T12:22:27.121Z,102023.26
2022-11-30T12:28:07.955Z,102019.59
2022-11-30T12:34:00.961Z,102024.95
2022-11-30T12:39:29.946Z,102021.19
2022-11-30T12:44:58.138Z,102025.41
2022-11-30T12:50:40.978Z,102028.26
2022-11-30T12:56:16.464Z,102032.90
2022-11-30T13:02:03.784Z,102032.94
2022-11-30T13:07:50.719Z,102025.48
2022-11-30T13:12:54.510Z,102029.73
2022-11-30T13:17:57.367Z,102028.19
2022-11-30T13:23:11.202Z,102029.64
2022-11-30T13:28:41.741Z,102027.63
2022-11-30T13:33:49.700Z,102023.01
2022-11-30T13:39:14.588Z,102023.66
2022-11-30T13:44:38.042Z,102026.47
2022-11-30T13:49:41.225Z,102028.92
2022-11-30T13:54:50.638Z,102026.13
2022-11-30T13:59:55.527Z,102027.92
2022-11-30T14:05:17.652Z,102027.98
2022-11-30T14:10:32.858Z,102029.80
2022-11-30T14:15:38.870Z,102030.77
2022-11-30T14:20:53.838Z,102036.01
2022-11-30T14:26:05.120Z,102038.52
2022-11-30T14:31:27.302Z,102039.05
2022-11-30T14:36:38.230Z,102039.73
2022-11-30T14:41:41.804Z,102041.15
2022-11-30T14:46:45.274Z,102036.11
2022-11-30T14:52:07.709Z,102038.30
2022-11-30T14:58:03.977Z,102039.33
2022-11-30T15:03:25.256Z,102050.17
2022-11-30T15:08:44.637Z,102051.75
2022-11-30T15:13:57.401Z,102050.83
2022-11-30T15:19:23.552Z,102048.03
2022-11-30T15:24:27.016Z,102051.67
2022-11-30T15:29:36.757Z,102050.79
2022-11-30T15:35:07.648Z,102057.83
2022-11-30T15:40:15.737Z,102060.50
2022-11-30T15:45:32.660Z,102064.49
2022-11-30T15:50:39.465Z,102060.18
2022-11-30T15:55:46.590Z,102061.32
2022-11-30T16:01:26.010Z,102059.27
2022-11-30T16:06:45.578Z,102056.41
2022-11-30T16:11:56.841Z,102062.64
2022-11-30T16:17:02.928Z,102066.39
2022-11-30T16:22:13.047Z,102060.68
2022-11-30T16:27:18.265Z,102061.62
2022-11-30T16:32:23.369Z,102061.41
2022-11-30T16:37:26.175Z,102057.13
2022-11-30T16:42:29.208Z,102058.98
2022-11-30T16:47:32.623Z,102065.23
2022-11-30T16:52:35.573Z,102072.25
2022-11-30T16:57:39.677Z,102078.80
2022-11-30T17:03:08.368Z,102079.20
2022-11-30T17:08:12.372Z,102085.82
2022-11-30T17:13:16.066Z,102087.16
2022-11-30T17:18:20.598Z,102092.61
2022-11-30T17:23:23.493Z,102091.72
2022-11-30T17:28:26.264Z,102091.23
2022-11-30T17:33:33.682Z,102092.63
2022-11-30T17:38:37.693Z,102095.38
2022-11-30T17:43:40.970Z,102096.94
2022-11-30T17:48:44.716Z,102096.02
2022-11-30T17:53:49.603Z,102097.42
2022-11-30T17:58:52.868Z,102099.34
2022-11-30T18:03:55.868Z,102101.30
2022-11-30T18:08:58.740Z,102101.55
2022-11-30T18:14:03.082Z,102099.41
2022-11-30T18:19:12.032Z,102097.60
2022-11-30T18:24:14.859Z,102101.92
2022-11-30T18:29:17.724Z,102100.25
2022-11-30T18:34:20.894Z,102105.20
2022-11-30T18:39:23.701Z,102108.17
2022-11-30T18:44:26.500Z,102104.87
2022-11-30T18:49:29.326Z,102112.02
2022-11-30T18:54:32.401Z,102111.86
2022-11-30T18:59:35.251Z,102109.76
2022-11-30T19:04:41.078Z,102113.42
2022-11-30T19:09:44.166Z,102108.91
2022-11-30T19:14:48.957Z,102106.73
2022-11-30T19:19:52.094Z,102110.56
2022-11-30T19:24:54.978Z,102109.36
2022-11-30T19:29:57.945Z,102113.48
2022-11-30T19:35:00.876Z,102116.86
2022-11-30T19:40:05.768Z,102116.48
2022-11-30T19:45:09.478Z,102116.35
2022-11-30T19:50:12.349Z,102122.14
2022-11-30T19:55:17.424Z,102125.21
2022-11-30T20:00:21.705Z,102133.45
2022-11-30T20:05:24.582Z,102134.03
2022-11-30T20:10:32.013Z,102132.92
2022-11-30T20:15:39.785Z,102139.27
2022-11-30T20:20:43.741Z,102138.20
2022-11-30T20:25:46.634Z,102135.02
2022-11-30T20:30:49.576Z,102142.07
2022-11-30T20:35:52.688Z,102139.53
2022-11-30T20:40:56.078Z,102132.67
2022-11-30T20:46:00.136Z,102137.84
2022-11-30T20:51:30.072Z,102140.11
2022-11-30T20:56:36.573Z,102143.16
2022-11-30T21:01:44.277Z,102145.23
2022-11-30T21:06:48.523Z,102147.65
2022-11-30T21:11:51.364Z,102150.08
2022-11-30T21:16:54.814Z,102152.23
2022-11-30T21:21:59.362Z,102148.52
2022-11-30T21:27:02.427Z,102145.86
2022-11-30T21:32:05.364Z,102146.23
2022-11-30T21:37:08.184Z,102149.77
2022-11-30T21:42:10.958Z,102148.54
2022-11-30T21:47:14.799Z,102139.86
2022-11-30T21:52:19.593Z,102142.04
2022-11-30T21:57:22.629Z,102142.80
2022-11-30T22:02:26.602Z,102147.33
2022-11-30T22:07:31.905Z,102144.00
2022-11-30T22:12:35.019Z,102138.98
2022-11-30T22:17:37.949Z,102138.66
2022-11-30T22:22:40.800Z,102138.66
2022-11-30T22:27:43.596Z,102137.08
2022-11-30T22:32:46.448Z,102138.36
2022-11-30T22:37:49.990Z,102132.65
2022-11-30T22:42:53.220Z,102139.11
2022-11-30T22:47:57.703Z,102136.45
2022-11-30T22:53:03.266Z,102139.71
2022-11-30T22:58:06.698Z,102138.15
2022-11-30T23:03:09.609Z,102134.13
2022-11-30T23:08:12.503Z,102129.41
2022-11-30T23:13:15.344Z,102127.98
2022-11-30T23:18:18.518Z,102120.15
2022-11-30T23:23:22.971Z,102119.17
2022-11-30T23:28:26.206Z,102113.38
2022-11-30T23:33:30.527Z,102113.10
2022-11-30T23:38:34.245Z,102113.14
2022-11-30T23:43:37.329Z,102113.26
2022-11-30T23:48:41.415Z,102116.63
2022-11-30T23:53:44.917Z,102117.37
2022-11-30T23:58:48.153Z,102114.51
